메인 페이지
METAR-TAF:

METAR-TAF

공항 :

위치토, 캔자스, 미국

위도: 37-38-50N, 경도: 097-25-46W, 고도: 406m

현재 날씨관측

예보는 51분 전, 11:53시(UTC)에 발표되었습니다.
13kt
온도 18°C
습도 94%
기압 1009 hPa
시정: 16.1km
고도 25000ft 상공 구름 조금

METAR: KICT 261153Z 18013KT 10SM FEW250 18/17 A2980 RMK AO2 SLP078 T01780167 10200 20172 58003

시각: 07:44 (12:44 UTC)

예보

예보는 1 시간 18분 전, 11:26시(UTC)에 발표되었습니다.
예보 대상 시간: 26일 12시부터 27일 12시까지 (UTC)
12kt
시정: 10km
맑음
26일 1500시부터 (UTC)
16kt
시정: 10km
맑음
26일 2000시부터 (UTC)
19kt, 순간 최대 풍속 27kt
시정: 10km
고도 25000ft 상공 구름 조금
26일 2200시부터 (UTC)
19kt
시정: 10km
고도 25000ft 상공 구름 조금
27일 0900시부터 (UTC)
남남동9kt
시정: 10km
고도 25000ft 상공 구름 조금
27일 1100시부터 (UTC)
남동7kt
시정: 10km
고도 20000ft 상공 구름 보통

TAF: KICT 261126Z 2612/2712 18012KT P6SM SKC WS020/22045KT FM261500 19016KT P6SM SKC FM262000 19019G27KT P6SM FEW250 FM262200 19019KT P6SM FEW250 FM270900 16009KT P6SM FEW250 FM271100 13007KT P6SM SCT200

4,000개 이상의 공항 관측 자료 및 예보 (METAR 및 TAF 보고).

지도상에서 검색 가능한 기상관측소가 노란 점과 빨간 점으로 표시되어 있습니다.

기상관측소 명을 보려면 표시 위로 마우스를 이동하세요.

날씨 관측과 예보를 보려면 클릭하세요.

지도 변경 : 확대하려면 엑스 표시가 있는 녹색 버튼, 축소하려면 빼기 표시가 있는 녹색 버튼, 다음 페이지의 지도를 보려면 녹색 화살표를 클릭하세요.


METAR-TAF: